Time;durP1;ratioP1;P1;durP2;ratioP2;P2;SDS_P1;SDS_P2;PMS_P1;PMS_P2;Temp;Humidity;BMP_temperature;BMP_pressure;BME280_temperature;BME280_humidity;BME280_pressure;Samples;Min_cycle;Max_cycle;Signal;HPM_P1;HPM_P2
2023/04/13 00:01:53;;;;;;;;;;;;;;;5.64;100.00;99440.72;4997823;28;20059;-75
2023/04/13 00:04:22;;;;;;;;;;;;;;;5.59;100.00;99456.19;5014106;28;19983;-75
2023/04/13 00:06:48;;;;;;;;;;;;;;;5.59;100.00;99434.91;5016546;28;19944;-76
2023/04/13 00:09:15;;;;;;;;;;;;;;;5.33;100.00;99390.75;5014379;28;20284;-76
2023/04/13 00:11:40;;;;;;;;;;;;;;;5.36;100.00;99432.25;5016246;28;19925;-75
2023/04/13 00:14:06;;;;;;;;;;;;;;;5.10;100.00;99436.00;5015418;28;19931;-74
2023/04/13 00:16:31;;;;;;;;;;;;;;;5.34;100.00;99440.38;5013815;28;20375;-74
2023/04/13 00:18:56;;;;;;;;;;;;;;;5.23;100.00;99440.34;5014824;28;20438;-75
2023/04/13 00:21:22;;;;;;;;;;;;;;;5.27;100.00;99395.72;5016697;28;20012;-76
2023/04/13 00:23:47;;;;;;;;;;;;;;;5.40;100.00;99412.41;5015804;28;19921;-77
2023/04/13 00:26:12;;;;;;;;;;;;;;;5.31;100.00;99416.66;5014939;28;20704;-73
2023/04/13 00:28:37;;;;;;;;;;;;;;;5.45;100.00;99422.69;5011651;28;19964;-78
2023/04/13 00:31:03;;;;;;;;;;;;;;;5.37;100.00;99415.31;5013225;28;19921;-74
2023/04/13 00:33:28;;;;;;;;;;;;;;;5.31;100.00;99434.41;5016315;28;19925;-74
2023/04/13 00:35:53;;;;;;;;;;;;;;;5.30;100.00;99411.47;5016406;28;19925;-75
2023/04/13 00:38:18;;;;;;;;;;;;;;;5.25;100.00;99399.34;5013976;28;19921;-74
2023/04/13 00:40:44;;;;;;;;;;;;;;;5.36;100.00;99393.19;5011994;28;20002;-74
2023/04/13 00:43:09;;;;;;;;;;;;;;;5.42;100.00;99388.34;5014899;28;19981;-75
2023/04/13 00:45:38;;;;;;;;;;;;;;;5.38;100.00;99420.53;5009775;28;19990;-72
2023/04/13 00:48:04;;;;;;;;;;;;;;;5.52;100.00;99392.81;5014155;28;20495;-75
2023/04/13 00:50:29;;;;;;;;;;;;;;;5.52;100.00;99415.91;5001877;28;19921;-73
2023/04/13 00:52:54;;;;;;;;;;;;;;;5.40;100.00;99399.09;5016529;28;20024;-72
2023/04/13 00:55:20;;;;;;;;;;;;;;;5.49;100.00;99395.72;5018428;28;19925;-73
2023/04/13 00:57:48;;;;;;;;;;;;;;;5.39;100.00;99403.59;5016817;28;19921;-73
2023/04/13 01:00:16;;;;;;;;;;;;;;;5.40;100.00;99402.63;5001853;28;20320;-75
2023/04/13 01:02:41;;;;;;;;;;;;;;;5.43;100.00;99406.00;5016193;28;19921;-76
2023/04/13 01:05:06;;;;;;;;;;;;;;;5.38;100.00;99415.22;5018814;28;20398;-74
2023/04/13 01:07:36;;;;;;;;;;;;;;;5.42;100.00;99391.84;5017263;28;19983;-72
2023/04/13 01:10:17;;;;;;;;;;;;;;;5.45;100.00;99412.91;5018490;28;19917;-75
2023/04/13 01:12:46;;;;;;;;;;;;;;;5.42;100.00;99391.00;5010115;28;19921;-77
2023/04/13 01:15:12;;;;;;;;;;;;;;;5.37;100.00;99405.53;5018477;28;20311;-74
2023/04/13 01:17:38;;;;;;;;;;;;;;;5.42;100.00;99407.81;5007260;28;19967;-72
2023/04/13 01:20:09;;;;;;;;;;;;;;;5.44;100.00;99408.53;5023754;28;19932;-76
2023/04/13 01:22:34;;;;;;;;;;;;;;;5.45;100.00;99404.91;5016752;28;19921;-73
2023/04/13 01:25:16;;;;;;;;;;;;;;;5.60;100.00;99404.63;5016178;28;19970;-77
2023/04/13 01:27:54;;;;;;;;;;;;;;;5.51;100.00;99392.91;5032019;28;19924;-74
2023/04/13 01:30:26;;;;;;;;;;;;;;;5.56;100.00;99401.38;4998598;28;20389;-74
2023/04/13 01:32:51;;;;;;;;;;;;;;;5.60;100.00;99402.84;5014138;28;20020;-75
2023/04/13 01:35:18;;;;;;;;;;;;;;;5.69;100.00;99399.41;5017720;28;20334;-78
2023/04/13 01:37:44;;;;;;;;;;;;;;;5.68;100.00;99404.88;5016240;28;19921;-73
2023/04/13 01:40:12;;;;;;;;;;;;;;;5.61;100.00;99409.00;5004883;28;19932;-74
2023/04/13 01:42:42;;;;;;;;;;;;;;;5.70;100.00;99409.09;5008355;28;20036;-74
2023/04/13 01:45:11;;;;;;;;;;;;;;;5.64;100.00;99412.28;5016650;28;19925;-77
2023/04/13 01:47:41;;;;;;;;;;;;;;;5.51;100.00;99423.06;5015170;28;19927;-74
2023/04/13 01:50:24;;;;;;;;;;;;;;;5.63;100.00;99391.09;5011839;28;20434;-75
2023/04/13 01:52:49;;;;;;;;;;;;;;;5.60;100.00;99405.50;5010634;28;20483;-74
2023/04/13 01:55:15;;;;;;;;;;;;;;;5.59;100.00;99416.25;5014824;28;19921;-74
2023/04/13 01:57:40;;;;;;;;;;;;;;;5.63;100.00;99415.91;5000703;28;19925;-74
2023/04/13 02:00:10;;;;;;;;;;;;;;;5.53;100.00;99431.78;5014731;28;20001;-73
2023/04/13 02:02:36;;;;;;;;;;;;;;;5.49;100.00;99427.66;5031247;28;19956;-74
2023/04/13 02:05:02;;;;;;;;;;;;;;;5.49;100.00;99440.97;5017319;28;20016;-76
2023/04/13 02:07:27;;;;;;;;;;;;;;;5.55;100.00;99436.97;5001347;28;20015;-74
2023/04/13 02:09:53;;;;;;;;;;;;;;;5.51;100.00;99464.78;5014697;28;20049;-76
2023/04/13 02:12:19;;;;;;;;;;;;;;;5.51;100.00;99472.78;5017048;28;19944;-76
2023/04/13 02:14:44;;;;;;;;;;;;;;;5.47;100.00;99469.53;5017259;28;19929;-75
2023/04/13 02:17:10;;;;;;;;;;;;;;;5.46;100.00;99477.63;5011994;28;19922;-73
2023/04/13 02:19:35;;;;;;;;;;;;;;;5.47;100.00;99474.84;5009874;28;19921;-74
2023/04/13 02:22:00;;;;;;;;;;;;;;;5.51;100.00;99465.66;5013125;28;20020;-73
2023/04/13 02:24:26;;;;;;;;;;;;;;;5.45;100.00;99473.25;5017973;28;20788;-74
2023/04/13 02:26:51;;;;;;;;;;;;;;;5.50;100.00;99474.63;5010935;28;19993;-74
2023/04/13 02:29:16;;;;;;;;;;;;;;;5.47;100.00;99477.50;5015316;28;20036;-73
2023/04/13 02:31:42;;;;;;;;;;;;;;;5.37;100.00;99487.16;5017111;28;19963;-77
2023/04/13 02:34:09;;;;;;;;;;;;;;;5.34;100.00;99495.41;5012295;28;19928;-74
2023/04/13 02:36:34;;;;;;;;;;;;;;;5.34;100.00;99485.59;5014897;28;19922;-72
2023/04/13 02:38:59;;;;;;;;;;;;;;;5.35;100.00;99497.94;5016855;28;20299;-76
2023/04/13 02:41:24;;;;;;;;;;;;;;;5.40;100.00;99502.91;4996793;28;19925;-74
2023/04/13 02:43:50;;;;;;;;;;;;;;;5.34;100.00;99506.03;4992052;28;19925;-75
2023/04/13 02:46:16;;;;;;;;;;;;;;;5.31;100.00;99501.81;4998989;28;19923;-77
2023/04/13 02:48:41;;;;;;;;;;;;;;;5.35;100.00;99510.41;4998083;28;19921;-74
2023/04/13 02:51:06;;;;;;;;;;;;;;;5.37;100.00;99519.13;5017724;28;19924;-74
2023/04/13 02:53:31;;;;;;;;;;;;;;;5.38;100.00;99520.81;5011901;28;19925;-74
2023/04/13 02:55:57;;;;;;;;;;;;;;;5.40;100.00;99532.19;5010047;28;19975;-74
2023/04/13 02:58:22;;;;;;;;;;;;;;;5.45;100.00;99537.16;5017766;28;20000;-73
2023/04/13 03:00:47;;;;;;;;;;;;;;;5.44;100.00;99532.78;5011484;28;20341;-74
2023/04/13 03:03:13;;;;;;;;;;;;;;;5.45;100.00;99539.81;5021242;28;19930;-73
2023/04/13 03:05:39;;;;;;;;;;;;;;;5.40;100.00;99534.84;5021636;28;19920;-79
2023/04/13 03:08:05;;;;;;;;;;;;;;;5.39;100.00;99543.81;5003647;28;19921;-75
2023/04/13 03:10:30;;;;;;;;;;;;;;;5.37;100.00;99553.72;5021715;28;19940;-78
2023/04/13 03:12:55;;;;;;;;;;;;;;;5.39;100.00;99559.78;4995023;28;20375;-72
2023/04/13 03:15:20;;;;;;;;;;;;;;;5.35;100.00;99564.50;5004367;28;19917;-74
2023/04/13 03:17:45;;;;;;;;;;;;;;;5.24;100.00;99561.78;5013810;28;19994;-76
2023/04/13 03:20:12;;;;;;;;;;;;;;;5.23;100.00;99558.28;4998533;28;19929;-77
2023/04/13 03:22:38;;;;;;;;;;;;;;;5.08;100.00;99562.97;5015515;28;19921;-76
2023/04/13 03:25:03;;;;;;;;;;;;;;;5.03;100.00;99565.13;5012529;28;19932;-73
2023/04/13 03:27:28;;;;;;;;;;;;;;;5.01;100.00;99574.19;5012394;28;19921;-76
2023/04/13 03:29:53;;;;;;;;;;;;;;;4.91;100.00;99581.97;5015521;28;20457;-77
2023/04/13 03:32:18;;;;;;;;;;;;;;;4.92;100.00;99578.34;5014580;28;20682;-73
2023/04/13 03:34:44;;;;;;;;;;;;;;;4.89;100.00;99584.78;5016104;28;19931;-76
2023/04/13 03:37:10;;;;;;;;;;;;;;;4.92;100.00;99589.88;5014223;28;19967;-75
2023/04/13 03:39:35;;;;;;;;;;;;;;;5.00;100.00;99591.94;5013636;28;19943;-74
2023/04/13 03:42:01;;;;;;;;;;;;;;;5.04;100.00;99601.41;5010708;28;20081;-74
2023/04/13 03:44:26;;;;;;;;;;;;;;;5.22;100.00;99600.97;5015738;28;19991;-74
2023/04/13 03:46:51;;;;;;;;;;;;;;;5.18;100.00;99604.81;5020945;28;19928;-75
2023/04/13 03:49:17;;;;;;;;;;;;;;;5.10;100.00;99605.41;5015955;28;19935;-73
2023/04/13 03:51:42;;;;;;;;;;;;;;;5.11;100.00;99607.09;5022030;28;19987;-76
2023/04/13 03:54:07;;;;;;;;;;;;;;;4.99;100.00;99606.22;5018063;28;20333;-76
2023/04/13 03:56:32;;;;;;;;;;;;;;;4.94;100.00;99613.69;5021983;28;20413;-75
2023/04/13 03:58:58;;;;;;;;;;;;;;;4.85;100.00;99615.22;5021803;28;20329;-75
2023/04/13 04:01:23;;;;;;;;;;;;;;;4.77;100.00;99621.09;5015838;28;19925;-77
2023/04/13 04:03:48;;;;;;;;;;;;;;;4.78;100.00;99621.94;5021718;28;20255;-74
2023/04/13 04:06:13;;;;;;;;;;;;;;;4.70;100.00;99622.50;5023118;28;20032;-76
2023/04/13 04:08:39;;;;;;;;;;;;;;;4.70;100.00;99635.78;5022821;28;19948;-75
2023/04/13 04:11:04;;;;;;;;;;;;;;;4.64;100.00;99633.56;5018572;28;19925;-74
2023/04/13 04:13:30;;;;;;;;;;;;;;;4.60;100.00;99632.13;5021082;28;20012;-74
2023/04/13 04:15:55;;;;;;;;;;;;;;;4.53;100.00;99633.50;5020259;28;19923;-74
2023/04/13 04:18:21;;;;;;;;;;;;;;;4.50;100.00;99642.56;5020962;28;19948;-74
2023/04/13 04:20:46;;;;;;;;;;;;;;;4.53;100.00;99649.47;5020270;28;19925;-72
2023/04/13 04:23:12;;;;;;;;;;;;;;;4.55;100.00;99655.53;5023689;28;19917;-76
2023/04/13 04:25:39;;;;;;;;;;;;;;;4.71;100.00;99653.44;5026337;28;19920;-77
2023/04/13 04:28:05;;;;;;;;;;;;;;;4.69;100.00;99658.03;5026298;28;19929;-76
2023/04/13 04:30:32;;;;;;;;;;;;;;;4.64;100.00;99655.72;5022556;28;19987;-75
2023/04/13 04:32:58;;;;;;;;;;;;;;;4.61;100.00;99660.41;5018670;28;20272;-75
2023/04/13 04:35:25;;;;;;;;;;;;;;;4.57;100.00;99666.91;5024459;28;19928;-76
2023/04/13 04:37:54;;;;;;;;;;;;;;;4.60;100.00;99680.81;5025206;28;19928;-75
2023/04/13 04:40:19;;;;;;;;;;;;;;;4.62;100.00;99668.25;5017517;28;19936;-75
2023/04/13 04:42:44;;;;;;;;;;;;;;;4.63;100.00;99677.09;5025671;28;19921;-75
2023/04/13 04:45:10;;;;;;;;;;;;;;;4.61;100.00;99682.50;5023701;28;19932;-73
2023/04/13 04:47:42;;;;;;;;;;;;;;;4.57;100.00;99689.00;5005540;28;20044;-74
2023/04/13 04:50:11;;;;;;;;;;;;;;;4.64;100.00;99694.72;5015677;28;20330;-75
2023/04/13 04:52:37;;;;;;;;;;;;;;;4.70;100.00;99701.44;5009030;28;19921;-76
2023/04/13 04:55:05;;;;;;;;;;;;;;;4.88;100.00;99705.41;5015833;28;19978;-74
2023/04/13 04:57:30;;;;;;;;;;;;;;;4.76;100.00;99695.69;5019583;28;19917;-76
2023/04/13 04:59:55;;;;;;;;;;;;;;;4.72;100.00;99699.50;4996071;28;19925;-75
2023/04/13 05:02:20;;;;;;;;;;;;;;;4.77;100.00;99702.66;5016942;28;20384;-74
2023/04/13 05:04:45;;;;;;;;;;;;;;;4.80;100.00;99710.44;5015472;28;20600;-76
2023/04/13 05:07:15;;;;;;;;;;;;;;;4.83;100.00;99714.69;5019283;28;19959;-76
2023/04/13 05:09:41;;;;;;;;;;;;;;;4.82;100.00;99705.03;5018075;28;19943;-77
2023/04/13 05:12:06;;;;;;;;;;;;;;;5.02;100.00;99706.25;5017058;28;20395;-74
2023/04/13 05:14:31;;;;;;;;;;;;;;;4.99;100.00;99719.75;5018669;28;20402;-77
2023/04/13 05:16:56;;;;;;;;;;;;;;;5.06;100.00;99713.00;5016539;28;20376;-74
2023/04/13 05:19:22;;;;;;;;;;;;;;;5.09;100.00;99715.47;5015112;28;19921;-74
2023/04/13 05:21:47;;;;;;;;;;;;;;;5.06;100.00;99726.31;5018184;28;19999;-76
2023/04/13 05:24:12;;;;;;;;;;;;;;;5.15;100.00;99722.16;5009127;28;20291;-77
2023/04/13 05:26:37;;;;;;;;;;;;;;;5.28;100.00;99733.59;5013391;28;19921;-74
2023/04/13 05:29:04;;;;;;;;;;;;;;;5.25;100.00;99725.81;5016550;28;20122;-75
2023/04/13 05:31:29;;;;;;;;;;;;;;;5.20;100.00;99725.31;5010843;28;19921;-77
2023/04/13 05:33:54;;;;;;;;;;;;;;;5.34;100.00;99722.50;5013195;28;19927;-74
2023/04/13 05:36:20;;;;;;;;;;;;;;;5.39;100.00;99730.13;5013335;28;19968;-77
2023/04/13 05:38:45;;;;;;;;;;;;;;;5.42;100.00;99734.41;4999664;28;19992;-73
2023/04/13 05:41:10;;;;;;;;;;;;;;;5.38;100.00;99739.94;5013575;28;19929;-74
2023/04/13 05:43:36;;;;;;;;;;;;;;;5.44;100.00;99751.94;5017367;28;20314;-75
2023/04/13 05:46:01;;;;;;;;;;;;;;;5.45;100.00;99753.66;5015856;28;20346;-77
2023/04/13 05:48:26;;;;;;;;;;;;;;;5.47;100.00;99759.72;5016469;28;19924;-74
2023/04/13 05:50:57;;;;;;;;;;;;;;;5.49;100.00;99759.59;5013523;28;19925;-76
2023/04/13 05:53:22;;;;;;;;;;;;;;;5.49;100.00;99770.25;5012614;28;20005;-76
2023/04/13 05:55:48;;;;;;;;;;;;;;;5.50;100.00;99774.59;5015700;28;19941;-74
2023/04/13 05:58:13;;;;;;;;;;;;;;;5.52;100.00;99786.00;5020145;28;20283;-75
2023/04/13 06:00:38;;;;;;;;;;;;;;;5.56;100.00;99780.31;5013920;28;19921;-74
2023/04/13 06:03:04;;;;;;;;;;;;;;;5.72;100.00;99776.53;5019950;28;19959;-73
2023/04/13 06:05:31;;;;;;;;;;;;;;;5.72;100.00;99776.53;5015974;28;20012;-76
2023/04/13 06:07:56;;;;;;;;;;;;;;;5.82;100.00;99795.34;5016613;28;20180;-74
2023/04/13 06:10:21;;;;;;;;;;;;;;;5.78;100.00;99801.84;5014034;28;20415;-76
2023/04/13 06:12:47;;;;;;;;;;;;;;;5.83;100.00;99797.88;5009990;28;19932;-76
2023/04/13 06:15:13;;;;;;;;;;;;;;;5.81;100.00;99797.16;5018176;28;19917;-73
2023/04/13 06:17:38;;;;;;;;;;;;;;;5.85;100.00;99805.75;5016272;28;19928;-76
2023/04/13 06:20:06;;;;;;;;;;;;;;;5.83;100.00;99800.53;5014384;28;19917;-72
2023/04/13 06:22:32;;;;;;;;;;;;;;;5.79;100.00;99806.22;5011813;28;20011;-77
2023/04/13 06:24:57;;;;;;;;;;;;;;;5.76;100.00;99820.63;5018558;28;19917;-74
2023/04/13 06:27:22;;;;;;;;;;;;;;;5.78;100.00;99824.03;5011838;28;19925;-72
2023/04/13 06:29:47;;;;;;;;;;;;;;;5.81;100.00;99825.59;5011572;28;20394;-73
2023/04/13 06:32:13;;;;;;;;;;;;;;;5.91;100.00;99826.63;5014663;28;20394;-75
2023/04/13 06:34:38;;;;;;;;;;;;;;;5.89;100.00;99833.00;5014140;28;19925;-76
2023/04/13 06:37:03;;;;;;;;;;;;;;;5.79;100.00;99827.53;5009957;28;20109;-74
2023/04/13 06:39:30;;;;;;;;;;;;;;;5.84;100.00;99830.69;5008688;28;19921;-76
2023/04/13 06:41:56;;;;;;;;;;;;;;;5.93;100.00;99850.47;5016358;28;19948;-77
2023/04/13 06:44:23;;;;;;;;;;;;;;;5.92;100.00;99835.47;5018289;28;20406;-76
2023/04/13 06:46:48;;;;;;;;;;;;;;;5.99;100.00;99858.84;5013765;28;19932;-76
2023/04/13 06:49:13;;;;;;;;;;;;;;;6.08;100.00;99856.50;5009583;28;20000;-77
2023/04/13 06:51:39;;;;;;;;;;;;;;;6.11;100.00;99854.47;5019887;28;20040;-73
2023/04/13 06:54:04;;;;;;;;;;;;;;;6.10;100.00;99865.25;5014098;28;19959;-74
2023/04/13 06:56:29;;;;;;;;;;;;;;;6.03;100.00;99870.19;5020323;28;19970;-76
2023/04/13 06:58:59;;;;;;;;;;;;;;;6.00;100.00;99875.75;5013562;28;19921;-72
2023/04/13 07:01:24;;;;;;;;;;;;;;;5.92;100.00;99870.97;5010155;28;19963;-71
2023/04/13 07:03:50;;;;;;;;;;;;;;;5.88;100.00;99881.94;5010267;28;20007;-72
2023/04/13 07:06:15;;;;;;;;;;;;;;;5.84;100.00;99878.66;5017233;28;19952;-74
2023/04/13 07:08:40;;;;;;;;;;;;;;;5.84;100.00;99878.66;5013471;28;19929;-76
2023/04/13 07:11:06;;;;;;;;;;;;;;;5.86;100.00;99882.06;5015665;28;19939;-73
2023/04/13 07:13:31;;;;;;;;;;;;;;;5.89;100.00;99910.28;5017806;28;19926;-75
2023/04/13 07:15:56;;;;;;;;;;;;;;;5.91;100.00;99897.69;5019308;28;19920;-75
2023/04/13 07:18:22;;;;;;;;;;;;;;;5.98;100.00;99891.78;5023632;28;19927;-74
2023/04/13 07:20:47;;;;;;;;;;;;;;;5.96;100.00;99898.22;5016207;28;20003;-73
2023/04/13 07:23:12;;;;;;;;;;;;;;;5.93;100.00;99899.31;5024685;28;19917;-74
2023/04/13 07:25:37;;;;;;;;;;;;;;;5.90;100.00;99896.84;5017591;28;19932;-73
2023/04/13 07:28:03;;;;;;;;;;;;;;;5.95;100.00;99909.84;5014241;28;19921;-76
2023/04/13 07:30:28;;;;;;;;;;;;;;;6.03;100.00;99930.63;5011086;28;19980;-75
2023/04/13 07:32:53;;;;;;;;;;;;;;;6.04;100.00;99916.31;5011755;28;20639;-76
2023/04/13 07:35:19;;;;;;;;;;;;;;;6.03;100.00;99914.63;5010677;28;19921;-74
2023/04/13 07:37:45;;;;;;;;;;;;;;;6.20;100.00;99916.91;5016261;28;20354;-75
2023/04/13 07:40:10;;;;;;;;;;;;;;;6.37;100.00;99926.28;5015370;28;20241;-74
2023/04/13 07:42:36;;;;;;;;;;;;;;;6.46;100.00;99940.78;5012479;28;20371;-73
2023/04/13 07:45:01;;;;;;;;;;;;;;;6.57;100.00;99930.13;5016793;28;19921;-75
2023/04/13 07:47:26;;;;;;;;;;;;;;;6.68;100.00;99936.47;4996367;28;19921;-77
2023/04/13 07:49:52;;;;;;;;;;;;;;;6.64;100.00;99938.50;5018712;28;19917;-74
2023/04/13 07:52:18;;;;;;;;;;;;;;;6.72;100.00;99943.28;5017823;28;19928;-77
2023/04/13 07:54:43;;;;;;;;;;;;;;;6.79;100.00;99943.66;5021286;28;19963;-76
2023/04/13 07:57:09;;;;;;;;;;;;;;;6.77;100.00;99938.44;5018167;28;19920;-77
2023/04/13 07:59:34;;;;;;;;;;;;;;;6.81;100.00;99947.91;5016723;28;19921;-75
2023/04/13 08:01:59;;;;;;;;;;;;;;;6.89;100.00;99944.63;5019963;28;19932;-74
2023/04/13 08:04:24;;;;;;;;;;;;;;;7.02;100.00;99944.53;5019372;28;19928;-72
2023/04/13 08:06:50;;;;;;;;;;;;;;;7.12;100.00;99945.53;5018619;28;19921;-72
2023/04/13 08:09:16;;;;;;;;;;;;;;;7.22;100.00;99976.88;5016673;28;20000;-74
2023/04/13 08:11:41;;;;;;;;;;;;;;;7.34;100.00;99951.88;5019441;28;19917;-71
2023/04/13 08:14:08;;;;;;;;;;;;;;;7.46;100.00;99963.41;5019237;28;19960;-73
2023/04/13 08:16:33;;;;;;;;;;;;;;;7.62;100.00;99960.38;5016090;28;19928;-74
2023/04/13 08:19:02;;;;;;;;;;;;;;;7.61;100.00;99969.34;5021851;28;19921;-72
2023/04/13 08:21:28;;;;;;;;;;;;;;;7.64;100.00;99969.13;5018476;28;19972;-75
2023/04/13 08:23:53;;;;;;;;;;;;;;;7.65;100.00;99977.03;5019464;28;20023;-71
2023/04/13 08:26:19;;;;;;;;;;;;;;;7.70;100.00;99973.13;5014785;28;19947;-72
2023/04/13 08:28:46;;;;;;;;;;;;;;;8.10;100.00;99985.97;5018190;28;19921;-74
2023/04/13 08:31:12;;;;;;;;;;;;;;;8.43;100.00;99991.34;5017862;28;20363;-75
2023/04/13 08:33:37;;;;;;;;;;;;;;;8.52;100.00;99983.44;5021007;28;19924;-73
2023/04/13 08:36:02;;;;;;;;;;;;;;;8.37;100.00;99990.88;5021827;28;19917;-76
2023/04/13 08:38:28;;;;;;;;;;;;;;;8.44;100.00;100009.09;5018540;28;19921;-72
2023/04/13 08:40:53;;;;;;;;;;;;;;;8.11;100.00;99999.19;5020463;28;20371;-71
2023/04/13 08:43:18;;;;;;;;;;;;;;;7.93;100.00;100012.25;5015782;28;19928;-76
2023/04/13 08:45:43;;;;;;;;;;;;;;;7.80;100.00;100016.84;5020814;28;20225;-74
2023/04/13 08:48:09;;;;;;;;;;;;;;;7.53;100.00;100025.25;5017022;28;20305;-72
2023/04/13 08:50:35;;;;;;;;;;;;;;;7.57;100.00;100034.69;5020043;28;20248;-74
2023/04/13 08:53:00;;;;;;;;;;;;;;;7.41;100.00;100033.22;5019819;28;20322;-71
2023/04/13 08:55:25;;;;;;;;;;;;;;;7.50;100.00;100039.66;5020007;28;19924;-73
2023/04/13 08:57:50;;;;;;;;;;;;;;;7.46;100.00;100038.19;5020642;28;19925;-71
2023/04/13 09:00:17;;;;;;;;;;;;;;;7.60;100.00;100043.34;5019224;28;20212;-72
2023/04/13 09:02:46;;;;;;;;;;;;;;;7.81;100.00;100051.47;5017230;28;19952;-71
2023/04/13 09:05:15;;;;;;;;;;;;;;;7.92;100.00;100052.44;5019394;28;20013;-72
2023/04/13 09:07:42;;;;;;;;;;;;;;;7.99;100.00;100061.69;5017134;28;19960;-72
2023/04/13 09:10:08;;;;;;;;;;;;;;;7.83;100.00;100061.19;5016890;28;19920;-72
2023/04/13 09:12:33;;;;;;;;;;;;;;;7.80;100.00;100059.59;5019567;28;19917;-71
2023/04/13 09:14:59;;;;;;;;;;;;;;;7.75;100.00;100068.00;5018274;28;20316;-70
2023/04/13 09:17:28;;;;;;;;;;;;;;;7.69;100.00;100072.94;5014634;28;19921;-71
2023/04/13 09:19:57;;;;;;;;;;;;;;;7.72;100.00;100078.94;5017678;28;19924;-71
2023/04/13 09:22:23;;;;;;;;;;;;;;;7.79;100.00;100089.97;5016450;28;19925;-71
2023/04/13 09:24:49;;;;;;;;;;;;;;;7.87;100.00;100092.03;5017875;28;20331;-72
2023/04/13 09:27:19;;;;;;;;;;;;;;;7.90;100.00;100099.81;5019154;28;20325;-71
2023/04/13 09:29:53;;;;;;;;;;;;;;;7.94;100.00;100096.81;5000471;28;19921;-71
2023/04/13 09:32:22;;;;;;;;;;;;;;;8.15;100.00;100101.41;5017032;28;19928;-73
2023/04/13 09:34:58;;;;;;;;;;;;;;;8.33;100.00;100099.09;5020319;28;20425;-71
2023/04/13 09:37:23;;;;;;;;;;;;;;;8.45;100.00;100101.75;5018722;28;19932;-71
2023/04/13 09:39:48;;;;;;;;;;;;;;;8.56;100.00;100104.44;5018230;28;20378;-72
2023/04/13 09:42:16;;;;;;;;;;;;;;;8.54;100.00;100106.41;5017600;28;19932;-71
2023/04/13 09:44:42;;;;;;;;;;;;;;;8.43;100.00;100117.06;5015610;28;19925;-72
2023/04/13 09:47:07;;;;;;;;;;;;;;;8.33;100.00;100117.81;5017105;28;19928;-72
2023/04/13 09:49:39;;;;;;;;;;;;;;;8.37;100.00;100121.94;5019402;28;19917;-71
2023/04/13 09:52:05;;;;;;;;;;;;;;;8.46;100.00;100130.19;5017082;28;20023;-73
2023/04/13 09:54:30;;;;;;;;;;;;;;;8.60;100.00;100135.34;5011051;28;19925;-73
2023/04/13 09:56:56;;;;;;;;;;;;;;;8.69;100.00;100142.59;5020046;28;19980;-73
2023/04/13 09:59:22;;;;;;;;;;;;;;;9.05;100.00;100139.72;5013171;28;19995;-73
2023/04/13 10:01:47;;;;;;;;;;;;;;;9.14;100.00;100149.66;5017392;28;19921;-71
2023/04/13 10:04:13;;;;;;;;;;;;;;;9.20;100.00;100158.19;5021524;28;19921;-72
2023/04/13 10:06:39;;;;;;;;;;;;;;;9.24;100.00;100152.44;5017171;28;20406;-72
2023/04/13 10:09:04;;;;;;;;;;;;;;;9.58;100.00;100165.69;5013967;28;20012;-71
2023/04/13 10:11:30;;;;;;;;;;;;;;;9.90;100.00;100170.13;5013981;28;20416;-75
2023/04/13 10:13:56;;;;;;;;;;;;;;;10.14;100.00;100165.44;5017795;28;19967;-73
2023/04/13 10:16:40;;;;;;;;;;;;;;;10.12;100.00;100165.59;5016544;28;19924;-72
2023/04/13 10:19:10;;;;;;;;;;;;;;;9.91;100.00;100168.28;5010210;28;19921;-75
2023/04/13 10:21:39;;;;;;;;;;;;;;;9.77;100.00;100169.47;5016130;28;20359;-72
2023/04/13 10:24:05;;;;;;;;;;;;;;;9.78;100.00;100173.00;5016573;28;19921;-72
2023/04/13 10:26:35;;;;;;;;;;;;;;;9.75;100.00;100174.97;5011605;28;20006;-72
2023/04/13 10:29:00;;;;;;;;;;;;;;;10.03;100.00;100177.97;5019369;28;19921;-73
2023/04/13 10:31:38;;;;;;;;;;;;;;;10.05;100.00;100184.06;5017477;28;19936;-71
2023/04/13 10:34:05;;;;;;;;;;;;;;;9.62;100.00;100203.78;5018330;28;19925;-72
2023/04/13 10:36:40;;;;;;;;;;;;;;;9.04;100.00;100204.13;5018753;28;20235;-75
2023/04/13 10:39:07;;;;;;;;;;;;;;;9.40;100.00;100212.78;5018959;28;20516;-71
2023/04/13 10:41:32;;;;;;;;;;;;;;;9.52;100.00;100218.94;5017128;28;19929;-71
2023/04/13 10:44:01;;;;;;;;;;;;;;;9.98;100.00;100220.44;5016722;28;19917;-76
2023/04/13 10:46:27;;;;;;;;;;;;;;;10.53;100.00;100213.97;5014358;28;19960;-73
2023/04/13 10:48:53;;;;;;;;;;;;;;;10.39;100.00;100217.88;5015962;28;19921;-73
2023/04/13 10:51:18;;;;;;;;;;;;;;;11.15;100.00;100207.66;5013347;28;20222;-71
2023/04/13 10:53:43;;;;;;;;;;;;;;;11.22;100.00;100219.56;5017051;28;19928;-75
2023/04/13 10:56:15;;;;;;;;;;;;;;;11.02;100.00;100229.41;5020919;28;20240;-72
2023/04/13 10:58:41;;;;;;;;;;;;;;;11.28;100.00;100231.56;5022505;28;19927;-71
2023/04/13 11:01:07;;;;;;;;;;;;;;;11.39;100.00;100223.38;5016673;28;19925;-72
2023/04/13 11:03:32;;;;;;;;;;;;;;;11.05;100.00;100226.44;5016725;28;20007;-75
2023/04/13 11:05:58;;;;;;;;;;;;;;;10.45;100.00;100233.44;5014883;28;19932;-72
2023/04/13 11:08:23;;;;;;;;;;;;;;;10.32;100.00;100222.91;5016336;28;19917;-73
2023/04/13 11:10:49;;;;;;;;;;;;;;;10.63;100.00;100230.13;5012631;28;19925;-72
2023/04/13 11:13:15;;;;;;;;;;;;;;;10.67;100.00;100236.06;5015837;28;19921;-72
2023/04/13 11:15:40;;;;;;;;;;;;;;;10.91;100.00;100246.47;5020640;28;19928;-71
2023/04/13 11:18:06;;;;;;;;;;;;;;;10.84;100.00;100240.81;5014749;28;19979;-72
2023/04/13 11:20:40;;;;;;;;;;;;;;;10.53;100.00;100250.69;5014354;28;19980;-74
2023/04/13 11:23:13;;;;;;;;;;;;;;;10.55;100.00;100260.31;5017092;28;19955;-75
2023/04/13 11:25:48;;;;;;;;;;;;;;;10.52;100.00;100259.72;5015458;28;20393;-72
2023/04/13 11:28:13;;;;;;;;;;;;;;;10.55;100.00;100260.31;5015514;28;20306;-71
2023/04/13 11:30:38;;;;;;;;;;;;;;;10.44;100.00;100272.00;5013610;28;19921;-71
2023/04/13 11:33:05;;;;;;;;;;;;;;;10.79;100.00;100277.94;5014548;28;19967;-72
2023/04/13 11:35:30;;;;;;;;;;;;;;;10.67;100.00;100279.00;5016612;28;19960;-71
2023/04/13 11:37:55;;;;;;;;;;;;;;;10.38;100.00;100280.53;5016106;28;20247;-75
2023/04/13 11:40:25;;;;;;;;;;;;;;;11.06;100.00;100279.19;5013543;28;19921;-72
2023/04/13 11:42:52;;;;;;;;;;;;;;;11.70;94.52;100267.13;5015431;28;20310;-73
2023/04/13 11:45:18;;;;;;;;;;;;;;;11.99;81.53;100260.94;4999927;28;19983;-74
2023/04/13 11:47:44;;;;;;;;;;;;;;;12.42;81.68;100271.34;5011291;28;19928;-72
2023/04/13 11:50:10;;;;;;;;;;;;;;;12.93;82.40;100265.63;5015965;28;19925;-70
2023/04/13 11:52:35;;;;;;;;;;;;;;;12.82;73.76;100264.84;5014973;28;19921;-71
2023/04/13 11:55:03;;;;;;;;;;;;;;;13.25;76.48;100269.72;5015437;28;20403;-72
2023/04/13 11:57:30;;;;;;;;;;;;;;;13.06;80.07;100276.91;5015454;28;20014;-72
2023/04/13 11:59:55;;;;;;;;;;;;;;;12.18;76.00;100280.72;5015962;28;19924;-70
2023/04/13 12:02:27;;;;;;;;;;;;;;;12.04;79.88;100275.81;5016597;28;19921;-74
2023/04/13 12:04:53;;;;;;;;;;;;;;;11.83;74.21;100282.13;5015620;28;19962;-72
2023/04/13 12:07:19;;;;;;;;;;;;;;;12.08;72.43;100287.94;5014538;28;20309;-76
2023/04/13 12:09:44;;;;;;;;;;;;;;;12.02;74.72;100288.53;5011305;28;19984;-73
2023/04/13 12:12:16;;;;;;;;;;;;;;;12.59;73.08;100296.66;5016537;28;19963;-71
2023/04/13 12:14:42;;;;;;;;;;;;;;;12.82;70.90;100304.38;5015056;28;19921;-73
2023/04/13 12:17:11;;;;;;;;;;;;;;;13.97;67.32;100295.94;5009117;28;19928;-70
2023/04/13 12:19:40;;;;;;;;;;;;;;;13.92;65.95;100308.03;5012756;28;19928;-73
2023/04/13 12:22:05;;;;;;;;;;;;;;;13.32;61.76;100304.00;5015121;28;20417;-71
2023/04/13 12:24:33;;;;;;;;;;;;;;;14.07;61.61;100312.88;5018116;28;20387;-71
2023/04/13 12:27:02;;;;;;;;;;;;;;;13.89;61.90;100300.25;5014082;28;19960;-71
2023/04/13 12:29:28;;;;;;;;;;;;;;;14.27;61.54;100300.03;5010132;28;20399;-71
2023/04/13 12:31:57;;;;;;;;;;;;;;;15.19;60.62;100317.66;5010197;28;20023;-71
2023/04/13 12:34:22;;;;;;;;;;;;;;;15.44;56.60;100319.44;5015079;28;19921;-71
2023/04/13 12:36:48;;;;;;;;;;;;;;;15.28;53.86;100308.59;5013818;28;19928;-71
2023/04/13 12:39:13;;;;;;;;;;;;;;;15.93;54.44;100311.66;5016525;28;20292;-72